sensor_id;sensor_type;location;lat;lon;timestamp;P1;durP1;ratioP1;P2;durP2;ratioP2
16037;SDS011;8123;50.906;6.172;2023-02-28T00:01:21;6.10;;;3.70;;
16037;SDS011;8123;50.906;6.172;2023-02-28T00:03:47;11.65;;;5.60;;
16037;SDS011;8123;50.906;6.172;2023-02-28T00:06:13;14.88;;;5.20;;
16037;SDS011;8123;50.906;6.172;2023-02-28T00:08:39;17.50;;;5.90;;
16037;SDS011;8123;50.906;6.172;2023-02-28T00:11:05;5.13;;;4.13;;
16037;SDS011;8123;50.906;6.172;2023-02-28T00:13:37;18.80;;;5.47;;
16037;SDS011;8123;50.906;6.172;2023-02-28T00:16:11;13.05;;;6.05;;
16037;SDS011;8123;50.906;6.172;2023-02-28T00:18:38;15.85;;;7.07;;
16037;SDS011;8123;50.906;6.172;2023-02-28T00:21:05;10.45;;;5.38;;
16037;SDS011;8123;50.906;6.172;2023-02-28T00:23:31;12.18;;;5.53;;
16037;SDS011;8123;50.906;6.172;2023-02-28T00:25:57;9.60;;;4.70;;
16037;SDS011;8123;50.906;6.172;2023-02-28T00:28:22;15.80;;;4.57;;
16037;SDS011;8123;50.906;6.172;2023-02-28T00:30:49;13.23;;;5.47;;
16037;SDS011;8123;50.906;6.172;2023-02-28T00:33:15;10.30;;;5.67;;
16037;SDS011;8123;50.906;6.172;2023-02-28T00:35:40;12.10;;;5.67;;
16037;SDS011;8123;50.906;6.172;2023-02-28T00:38:06;42.97;;;5.43;;
16037;SDS011;8123;50.906;6.172;2023-02-28T00:40:32;14.43;;;5.40;;
16037;SDS011;8123;50.906;6.172;2023-02-28T00:42:58;19.43;;;5.73;;
16037;SDS011;8123;50.906;6.172;2023-02-28T00:45:23;26.97;;;6.80;;
16037;SDS011;8123;50.906;6.172;2023-02-28T00:47:49;13.87;;;5.60;;
16037;SDS011;8123;50.906;6.172;2023-02-28T00:50:18;22.43;;;6.33;;
16037;SDS011;8123;50.906;6.172;2023-02-28T00:52:45;11.40;;;6.40;;
16037;SDS011;8123;50.906;6.172;2023-02-28T00:55:11;8.10;;;5.72;;
16037;SDS011;8123;50.906;6.172;2023-02-28T00:57:37;7.97;;;4.38;;
16037;SDS011;8123;50.906;6.172;2023-02-28T01:00:04;10.53;;;4.63;;
16037;SDS011;8123;50.906;6.172;2023-02-28T01:02:30;15.38;;;6.60;;
16037;SDS011;8123;50.906;6.172;2023-02-28T01:04:55;11.87;;;5.37;;
16037;SDS011;8123;50.906;6.172;2023-02-28T01:07:22;14.40;;;6.37;;
16037;SDS011;8123;50.906;6.172;2023-02-28T01:09:48;13.80;;;5.90;;
16037;SDS011;8123;50.906;6.172;2023-02-28T01:12:14;29.23;;;5.57;;
16037;SDS011;8123;50.906;6.172;2023-02-28T01:14:39;8.10;;;4.63;;
16037;SDS011;8123;50.906;6.172;2023-02-28T01:17:05;10.10;;;5.10;;
16037;SDS011;8123;50.906;6.172;2023-02-28T01:19:31;13.77;;;5.53;;
16037;SDS011;8123;50.906;6.172;2023-02-28T01:21:59;15.33;;;6.03;;
16037;SDS011;8123;50.906;6.172;2023-02-28T01:24:27;10.98;;;5.53;;
16037;SDS011;8123;50.906;6.172;2023-02-28T01:26:53;22.93;;;6.67;;
16037;SDS011;8123;50.906;6.172;2023-02-28T01:29:18;11.00;;;6.47;;
16037;SDS011;8123;50.906;6.172;2023-02-28T01:31:44;12.57;;;5.60;;
16037;SDS011;8123;50.906;6.172;2023-02-28T01:34:09;8.93;;;5.40;;
16037;SDS011;8123;50.906;6.172;2023-02-28T01:36:35;15.97;;;5.67;;
16037;SDS011;8123;50.906;6.172;2023-02-28T01:39:01;9.40;;;5.07;;
16037;SDS011;8123;50.906;6.172;2023-02-28T01:41:28;13.00;;;5.65;;
16037;SDS011;8123;50.906;6.172;2023-02-28T01:46:59;12.32;;;5.82;;
16037;SDS011;8123;50.906;6.172;2023-02-28T01:49:25;10.47;;;5.83;;
16037;SDS011;8123;50.906;6.172;2023-02-28T01:51:51;9.07;;;4.93;;
16037;SDS011;8123;50.906;6.172;2023-02-28T01:54:24;5.28;;;4.88;;
16037;SDS011;8123;50.906;6.172;2023-02-28T01:56:53;8.90;;;3.83;;
16037;SDS011;8123;50.906;6.172;2023-02-28T01:59:29;9.63;;;4.70;;
16037;SDS011;8123;50.906;6.172;2023-02-28T02:01:57;6.50;;;3.90;;
16037;SDS011;8123;50.906;6.172;2023-02-28T02:04:23;14.73;;;6.93;;
16037;SDS011;8123;50.906;6.172;2023-02-28T02:06:55;7.88;;;4.90;;
16037;SDS011;8123;50.906;6.172;2023-02-28T02:09:22;4.43;;;3.20;;
16037;SDS011;8123;50.906;6.172;2023-02-28T02:11:48;8.00;;;4.70;;
16037;SDS011;8123;50.906;6.172;2023-02-28T02:30:21;10.23;;;4.28;;
16037;SDS011;8123;50.906;6.172;2023-02-28T02:36:06;9.63;;;4.95;;
16037;SDS011;8123;50.906;6.172;2023-02-28T02:41:12;8.07;;;3.90;;
16037;SDS011;8123;50.906;6.172;2023-02-28T02:44:20;8.52;;;3.90;;
16037;SDS011;8123;50.906;6.172;2023-02-28T02:46:38;6.85;;;3.40;;
16037;SDS011;8123;50.906;6.172;2023-02-28T02:49:11;16.95;;;5.30;;
16037;SDS011;8123;50.906;6.172;2023-02-28T02:51:48;16.30;;;4.25;;
16037;SDS011;8123;50.906;6.172;2023-02-28T02:54:21;9.27;;;4.40;;
16037;SDS011;8123;50.906;6.172;2023-02-28T02:56:59;15.38;;;4.70;;
16037;SDS011;8123;50.906;6.172;2023-02-28T02:59:29;6.13;;;4.10;;
16037;SDS011;8123;50.906;6.172;2023-02-28T03:01:57;5.65;;;4.40;;
16037;SDS011;8123;50.906;6.172;2023-02-28T03:04:26;14.02;;;4.28;;
16037;SDS011;8123;50.906;6.172;2023-02-28T03:06:56;12.07;;;4.60;;
16037;SDS011;8123;50.906;6.172;2023-02-28T03:09:22;4.23;;;3.80;;
16037;SDS011;8123;50.906;6.172;2023-02-28T03:11:49;15.50;;;4.90;;
16037;SDS011;8123;50.906;6.172;2023-02-28T03:14:35;7.65;;;3.80;;
16037;SDS011;8123;50.906;6.172;2023-02-28T03:17:53;5.47;;;3.63;;
16037;SDS011;8123;50.906;6.172;2023-02-28T03:20:46;6.32;;;3.95;;
16037;SDS011;8123;50.906;6.172;2023-02-28T03:23:45;5.80;;;3.83;;
16037;SDS011;8123;50.906;6.172;2023-02-28T03:26:19;6.68;;;3.90;;
16037;SDS011;8123;50.906;6.172;2023-02-28T03:31:26;3.58;;;3.13;;
16037;SDS011;8123;50.906;6.172;2023-02-28T03:36:57;3.78;;;3.42;;
16037;SDS011;8123;50.906;6.172;2023-02-28T03:39:37;7.63;;;3.97;;
16037;SDS011;8123;50.906;6.172;2023-02-28T03:42:11;4.30;;;3.80;;
16037;SDS011;8123;50.906;6.172;2023-02-28T03:44:44;9.18;;;4.35;;
16037;SDS011;8123;50.906;6.172;2023-02-28T03:47:19;19.80;;;4.35;;
16037;SDS011;8123;50.906;6.172;2023-02-28T03:49:52;4.65;;;4.25;;
16037;SDS011;8123;50.906;6.172;2023-02-28T03:52:21;13.38;;;4.45;;
16037;SDS011;8123;50.906;6.172;2023-02-28T03:54:54;6.95;;;3.92;;
16037;SDS011;8123;50.906;6.172;2023-02-28T03:57:32;16.75;;;5.22;;
16037;SDS011;8123;50.906;6.172;2023-02-28T04:00:09;8.18;;;4.47;;
16037;SDS011;8123;50.906;6.172;2023-02-28T04:02:53;7.10;;;4.30;;
16037;SDS011;8123;50.906;6.172;2023-02-28T04:05:19;5.22;;;4.72;;
16037;SDS011;8123;50.906;6.172;2023-02-28T04:07:46;11.23;;;4.93;;
16037;SDS011;8123;50.906;6.172;2023-02-28T04:10:12;7.63;;;4.40;;
16037;SDS011;8123;50.906;6.172;2023-02-28T04:12:38;10.75;;;4.50;;
16037;SDS011;8123;50.906;6.172;2023-02-28T04:15:04;25.27;;;5.17;;
16037;SDS011;8123;50.906;6.172;2023-02-28T04:17:30;10.70;;;4.88;;
16037;SDS011;8123;50.906;6.172;2023-02-28T04:19:56;12.33;;;5.07;;
16037;SDS011;8123;50.906;6.172;2023-02-28T04:22:22;10.38;;;4.82;;
16037;SDS011;8123;50.906;6.172;2023-02-28T04:24:50;14.88;;;5.22;;
16037;SDS011;8123;50.906;6.172;2023-02-28T04:27:16;10.80;;;4.80;;
16037;SDS011;8123;50.906;6.172;2023-02-28T04:29:42;11.40;;;5.40;;
16037;SDS011;8123;50.906;6.172;2023-02-28T04:32:09;16.05;;;5.95;;
16037;SDS011;8123;50.906;6.172;2023-02-28T04:34:35;14.75;;;7.07;;
16037;SDS011;8123;50.906;6.172;2023-02-28T04:37:01;10.23;;;6.73;;
16037;SDS011;8123;50.906;6.172;2023-02-28T04:39:28;14.50;;;5.90;;
16037;SDS011;8123;50.906;6.172;2023-02-28T04:41:54;8.60;;;6.68;;
16037;SDS011;8123;50.906;6.172;2023-02-28T04:44:21;8.60;;;5.63;;
16037;SDS011;8123;50.906;6.172;2023-02-28T04:46:47;11.40;;;5.85;;
16037;SDS011;8123;50.906;6.172;2023-02-28T04:49:14;27.67;;;7.10;;
16037;SDS011;8123;50.906;6.172;2023-02-28T04:51:40;16.02;;;7.18;;
16037;SDS011;8123;50.906;6.172;2023-02-28T04:54:06;8.45;;;5.57;;
16037;SDS011;8123;50.906;6.172;2023-02-28T04:56:32;14.13;;;6.80;;
16037;SDS011;8123;50.906;6.172;2023-02-28T04:58:58;10.10;;;6.73;;
16037;SDS011;8123;50.906;6.172;2023-02-28T05:01:24;19.47;;;6.73;;
16037;SDS011;8123;50.906;6.172;2023-02-28T05:03:52;13.75;;;6.93;;
16037;SDS011;8123;50.906;6.172;2023-02-28T05:06:20;13.38;;;6.07;;
16037;SDS011;8123;50.906;6.172;2023-02-28T05:08:48;16.08;;;7.25;;
16037;SDS011;8123;50.906;6.172;2023-02-28T05:11:16;13.13;;;7.47;;
16037;SDS011;8123;50.906;6.172;2023-02-28T05:13:43;11.70;;;7.50;;
16037;SDS011;8123;50.906;6.172;2023-02-28T05:16:09;11.27;;;7.30;;
16037;SDS011;8123;50.906;6.172;2023-02-28T05:18:35;9.67;;;7.47;;
16037;SDS011;8123;50.906;6.172;2023-02-28T05:21:01;13.82;;;7.88;;
16037;SDS011;8123;50.906;6.172;2023-02-28T05:23:27;13.50;;;6.87;;
16037;SDS011;8123;50.906;6.172;2023-02-28T05:25:53;16.07;;;8.70;;
16037;SDS011;8123;50.906;6.172;2023-02-28T05:28:19;16.77;;;8.80;;
16037;SDS011;8123;50.906;6.172;2023-02-28T05:30:45;20.65;;;7.68;;
16037;SDS011;8123;50.906;6.172;2023-02-28T05:33:11;12.53;;;7.60;;
16037;SDS011;8123;50.906;6.172;2023-02-28T05:35:40;21.92;;;8.70;;
16037;SDS011;8123;50.906;6.172;2023-02-28T05:38:07;15.07;;;8.15;;
16037;SDS011;8123;50.906;6.172;2023-02-28T05:40:33;15.88;;;8.75;;
16037;SDS011;8123;50.906;6.172;2023-02-28T05:42:59;16.30;;;7.93;;
16037;SDS011;8123;50.906;6.172;2023-02-28T05:45:25;23.30;;;7.87;;
16037;SDS011;8123;50.906;6.172;2023-02-28T05:47:53;13.93;;;8.10;;
16037;SDS011;8123;50.906;6.172;2023-02-28T05:50:19;18.17;;;8.05;;
16037;SDS011;8123;50.906;6.172;2023-02-28T05:52:49;15.50;;;7.73;;
16037;SDS011;8123;50.906;6.172;2023-02-28T05:55:15;13.57;;;7.82;;
16037;SDS011;8123;50.906;6.172;2023-02-28T05:57:41;20.43;;;8.93;;
16037;SDS011;8123;50.906;6.172;2023-02-28T06:00:07;14.63;;;8.07;;
16037;SDS011;8123;50.906;6.172;2023-02-28T06:02:34;12.70;;;7.65;;
16037;SDS011;8123;50.906;6.172;2023-02-28T06:04:59;13.83;;;7.90;;
16037;SDS011;8123;50.906;6.172;2023-02-28T06:07:25;15.50;;;7.60;;
16037;SDS011;8123;50.906;6.172;2023-02-28T06:09:51;14.17;;;7.33;;
16037;SDS011;8123;50.906;6.172;2023-02-28T06:12:16;16.00;;;7.53;;
16037;SDS011;8123;50.906;6.172;2023-02-28T06:14:42;15.00;;;7.13;;
16037;SDS011;8123;50.906;6.172;2023-02-28T06:17:08;27.00;;;7.50;;
16037;SDS011;8123;50.906;6.172;2023-02-28T06:19:36;11.60;;;7.43;;
16037;SDS011;8123;50.906;6.172;2023-02-28T06:22:03;12.95;;;7.18;;
16037;SDS011;8123;50.906;6.172;2023-02-28T06:24:29;10.00;;;6.78;;
16037;SDS011;8123;50.906;6.172;2023-02-28T06:26:56;15.10;;;7.30;;
16037;SDS011;8123;50.906;6.172;2023-02-28T06:29:23;9.98;;;6.50;;
16037;SDS011;8123;50.906;6.172;2023-02-28T06:31:50;9.30;;;6.65;;
16037;SDS011;8123;50.906;6.172;2023-02-28T06:34:15;19.50;;;8.30;;
16037;SDS011;8123;50.906;6.172;2023-02-28T06:36:41;15.73;;;7.13;;
16037;SDS011;8123;50.906;6.172;2023-02-28T06:39:07;27.73;;;5.93;;
16037;SDS011;8123;50.906;6.172;2023-02-28T06:41:34;34.38;;;14.55;;
16037;SDS011;8123;50.906;6.172;2023-02-28T06:44:03;20.40;;;10.10;;
16037;SDS011;8123;50.906;6.172;2023-02-28T06:46:43;14.45;;;6.57;;
16037;SDS011;8123;50.906;6.172;2023-02-28T06:49:10;14.50;;;6.57;;
16037;SDS011;8123;50.906;6.172;2023-02-28T06:51:37;11.60;;;6.32;;
16037;SDS011;8123;50.906;6.172;2023-02-28T06:54:04;11.88;;;6.78;;
16037;SDS011;8123;50.906;6.172;2023-02-28T06:56:30;13.90;;;6.78;;
16037;SDS011;8123;50.906;6.172;2023-02-28T06:58:56;14.80;;;6.23;;
16037;SDS011;8123;50.906;6.172;2023-02-28T07:01:22;13.93;;;7.10;;
16037;SDS011;8123;50.906;6.172;2023-02-28T07:03:48;12.85;;;6.90;;
16037;SDS011;8123;50.906;6.172;2023-02-28T07:06:18;13.30;;;7.40;;
16037;SDS011;8123;50.906;6.172;2023-02-28T07:08:45;15.02;;;8.10;;
16037;SDS011;8123;50.906;6.172;2023-02-28T07:11:10;12.57;;;6.80;;
16037;SDS011;8123;50.906;6.172;2023-02-28T07:13:36;11.03;;;7.00;;
16037;SDS011;8123;50.906;6.172;2023-02-28T07:16:05;13.03;;;7.13;;
16037;SDS011;8123;50.906;6.172;2023-02-28T07:18:34;9.45;;;5.88;;
16037;SDS011;8123;50.906;6.172;2023-02-28T07:21:01;12.90;;;6.60;;
16037;SDS011;8123;50.906;6.172;2023-02-28T07:23:27;11.13;;;6.35;;
16037;SDS011;8123;50.906;6.172;2023-02-28T07:25:53;14.03;;;7.60;;
16037;SDS011;8123;50.906;6.172;2023-02-28T07:28:19;12.90;;;6.80;;
16037;SDS011;8123;50.906;6.172;2023-02-28T07:30:44;13.50;;;7.00;;
16037;SDS011;8123;50.906;6.172;2023-02-28T07:33:10;9.10;;;5.83;;
16037;SDS011;8123;50.906;6.172;2023-02-28T07:35:36;8.70;;;5.97;;
16037;SDS011;8123;50.906;6.172;2023-02-28T07:38:02;9.50;;;6.03;;
16037;SDS011;8123;50.906;6.172;2023-02-28T07:40:28;10.32;;;6.72;;
16037;SDS011;8123;50.906;6.172;2023-02-28T07:42:54;9.70;;;5.77;;
16037;SDS011;8123;50.906;6.172;2023-02-28T07:45:20;15.73;;;7.33;;
16037;SDS011;8123;50.906;6.172;2023-02-28T07:47:46;8.90;;;5.20;;
16037;SDS011;8123;50.906;6.172;2023-02-28T07:50:12;6.90;;;5.30;;
16037;SDS011;8123;50.906;6.172;2023-02-28T07:52:41;14.18;;;6.00;;
16037;SDS011;8123;50.906;6.172;2023-02-28T07:55:08;10.98;;;5.05;;
16037;SDS011;8123;50.906;6.172;2023-02-28T07:57:34;10.18;;;6.15;;
16037;SDS011;8123;50.906;6.172;2023-02-28T08:00:00;7.93;;;5.35;;
16037;SDS011;8123;50.906;6.172;2023-02-28T08:02:26;5.30;;;4.50;;
16037;SDS011;8123;50.906;6.172;2023-02-28T08:04:52;8.80;;;5.23;;
16037;SDS011;8123;50.906;6.172;2023-02-28T08:07:17;6.80;;;4.70;;
16037;SDS011;8123;50.906;6.172;2023-02-28T08:09:43;7.72;;;5.22;;
16037;SDS011;8123;50.906;6.172;2023-02-28T08:12:11;6.45;;;5.10;;
16037;SDS011;8123;50.906;6.172;2023-02-28T08:14:37;6.00;;;4.80;;
16037;SDS011;8123;50.906;6.172;2023-02-28T08:17:04;6.10;;;3.95;;
16037;SDS011;8123;50.906;6.172;2023-02-28T08:19:30;7.60;;;4.67;;
16037;SDS011;8123;50.906;6.172;2023-02-28T08:21:56;14.73;;;4.70;;
16037;SDS011;8123;50.906;6.172;2023-02-28T08:24:22;6.07;;;4.07;;
16037;SDS011;8123;50.906;6.172;2023-02-28T08:26:47;8.83;;;4.57;;
16037;SDS011;8123;50.906;6.172;2023-02-28T08:29:14;4.30;;;3.90;;
16037;SDS011;8123;50.906;6.172;2023-02-28T08:31:40;7.53;;;4.90;;
16037;SDS011;8123;50.906;6.172;2023-02-28T08:34:11;5.93;;;4.35;;
16037;SDS011;8123;50.906;6.172;2023-02-28T08:36:38;27.48;;;4.68;;
16037;SDS011;8123;50.906;6.172;2023-02-28T08:39:04;12.65;;;4.30;;
16037;SDS011;8123;50.906;6.172;2023-02-28T08:41:31;8.48;;;4.50;;
16037;SDS011;8123;50.906;6.172;2023-02-28T08:43:57;7.82;;;4.35;;
16037;SDS011;8123;50.906;6.172;2023-02-28T08:46:23;6.23;;;4.17;;
16037;SDS011;8123;50.906;6.172;2023-02-28T08:48:52;5.22;;;3.72;;
16037;SDS011;8123;50.906;6.172;2023-02-28T08:51:20;8.60;;;4.18;;
16037;SDS011;8123;50.906;6.172;2023-02-28T08:53:51;5.47;;;3.33;;
16037;SDS011;8123;50.906;6.172;2023-02-28T08:56:18;5.95;;;3.10;;
16037;SDS011;8123;50.906;6.172;2023-02-28T08:58:45;9.40;;;4.03;;
16037;SDS011;8123;50.906;6.172;2023-02-28T09:01:12;9.77;;;3.30;;
16037;SDS011;8123;50.906;6.172;2023-02-28T09:03:40;4.57;;;3.50;;
16037;SDS011;8123;50.906;6.172;2023-02-28T09:06:06;3.28;;;3.08;;
16037;SDS011;8123;50.906;6.172;2023-02-28T09:08:33;3.92;;;3.50;;
16037;SDS011;8123;50.906;6.172;2023-02-28T09:10:59;4.17;;;3.77;;
16037;SDS011;8123;50.906;6.172;2023-02-28T09:13:25;3.72;;;3.28;;
16037;SDS011;8123;50.906;6.172;2023-02-28T09:15:52;5.80;;;3.83;;
16037;SDS011;8123;50.906;6.172;2023-02-28T09:18:18;3.50;;;3.20;;
16037;SDS011;8123;50.906;6.172;2023-02-28T09:20:44;4.70;;;2.30;;
16037;SDS011;8123;50.906;6.172;2023-02-28T09:23:10;3.43;;;2.97;;
16037;SDS011;8123;50.906;6.172;2023-02-28T09:25:37;3.00;;;2.70;;
16037;SDS011;8123;50.906;6.172;2023-02-28T09:28:03;3.87;;;2.70;;
16037;SDS011;8123;50.906;6.172;2023-02-28T09:30:29;3.67;;;3.08;;
16037;SDS011;8123;50.906;6.172;2023-02-28T09:32:55;5.45;;;2.63;;
16037;SDS011;8123;50.906;6.172;2023-02-28T09:35:21;2.33;;;2.13;;
16037;SDS011;8123;50.906;6.172;2023-02-28T09:37:49;2.70;;;2.50;;
16037;SDS011;8123;50.906;6.172;2023-02-28T09:40:16;2.70;;;2.50;;
16037;SDS011;8123;50.906;6.172;2023-02-28T09:42:48;3.22;;;1.80;;
16037;SDS011;8123;50.906;6.172;2023-02-28T09:45:23;2.47;;;2.28;;
16037;SDS011;8123;50.906;6.172;2023-02-28T09:47:54;5.95;;;2.60;;
16037;SDS011;8123;50.906;6.172;2023-02-28T09:52:58;6.38;;;2.70;;
16037;SDS011;8123;50.906;6.172;2023-02-28T09:58:04;2.17;;;2.08;;
16037;SDS011;8123;50.906;6.172;2023-02-28T10:00:32;4.40;;;2.05;;
16037;SDS011;8123;50.906;6.172;2023-02-28T10:05:51;3.47;;;2.10;;
16037;SDS011;8123;50.906;6.172;2023-02-28T10:09:06;1.92;;;1.83;;
16037;SDS011;8123;50.906;6.172;2023-02-28T10:11:34;4.03;;;2.10;;
16037;SDS011;8123;50.906;6.172;2023-02-28T10:22:52;6.70;;;1.67;;
16037;SDS011;8123;50.906;6.172;2023-02-28T10:25:23;2.65;;;2.25;;
16037;SDS011;8123;50.906;6.172;2023-02-28T10:27:58;3.28;;;2.13;;
16037;SDS011;8123;50.906;6.172;2023-02-28T10:30:33;2.50;;;2.40;;
16037;SDS011;8123;50.906;6.172;2023-02-28T10:32:59;3.33;;;1.70;;
16037;SDS011;8123;50.906;6.172;2023-02-28T10:35:25;2.77;;;1.73;;
16037;SDS011;8123;50.906;6.172;2023-02-28T10:37:55;3.13;;;2.70;;
16037;SDS011;8123;50.906;6.172;2023-02-28T10:42:59;2.60;;;2.40;;
16037;SDS011;8123;50.906;6.172;2023-02-28T10:45:25;4.10;;;2.30;;
16037;SDS011;8123;50.906;6.172;2023-02-28T10:50:50;2.03;;;1.93;;
16037;SDS011;8123;50.906;6.172;2023-02-28T11:01:16;2.90;;;2.40;;
16037;SDS011;8123;50.906;6.172;2023-02-28T11:03:44;14.13;;;2.53;;
16037;SDS011;8123;50.906;6.172;2023-02-28T11:06:15;2.50;;;1.90;;
16037;SDS011;8123;50.906;6.172;2023-02-28T11:08:47;4.60;;;2.30;;
16037;SDS011;8123;50.906;6.172;2023-02-28T11:11:16;6.17;;;2.80;;
16037;SDS011;8123;50.906;6.172;2023-02-28T11:13:42;2.20;;;2.10;;
16037;SDS011;8123;50.906;6.172;2023-02-28T11:16:10;2.33;;;2.13;;
16037;SDS011;8123;50.906;6.172;2023-02-28T11:18:40;2.43;;;2.33;;
16037;SDS011;8123;50.906;6.172;2023-02-28T11:21:15;2.57;;;2.37;;
16037;SDS011;8123;50.906;6.172;2023-02-28T11:23:44;3.60;;;2.70;;
16037;SDS011;8123;50.906;6.172;2023-02-28T11:26:10;2.40;;;2.20;;
16037;SDS011;8123;50.906;6.172;2023-02-28T11:28:39;2.77;;;2.13;;
16037;SDS011;8123;50.906;6.172;2023-02-28T11:33:42;3.33;;;2.77;;
16037;SDS011;8123;50.906;6.172;2023-02-28T11:36:13;4.20;;;2.47;;
16037;SDS011;8123;50.906;6.172;2023-02-28T11:38:43;3.60;;;2.43;;
16037;SDS011;8123;50.906;6.172;2023-02-28T11:55:27;4.53;;;2.53;;
16037;SDS011;8123;50.906;6.172;2023-02-28T12:01:01;2.90;;;2.63;;
16037;SDS011;8123;50.906;6.172;2023-02-28T12:20:02;3.00;;;2.40;;
16037;SDS011;8123;50.906;6.172;2023-02-28T12:25:58;3.77;;;2.97;;
16037;SDS011;8123;50.906;6.172;2023-02-28T12:28:27;3.20;;;2.80;;
16037;SDS011;8123;50.906;6.172;2023-02-28T12:31:02;4.30;;;3.90;;
16037;SDS011;8123;50.906;6.172;2023-02-28T12:33:45;3.50;;;2.47;;
16037;SDS011;8123;50.906;6.172;2023-02-28T12:36:38;3.93;;;2.80;;
16037;SDS011;8123;50.906;6.172;2023-02-28T12:39:11;2.90;;;2.60;;
16037;SDS011;8123;50.906;6.172;2023-02-28T12:41:51;3.50;;;3.20;;
16037;SDS011;8123;50.906;6.172;2023-02-28T12:44:30;3.20;;;2.90;;
16037;SDS011;8123;50.906;6.172;2023-02-28T12:47:10;3.37;;;3.10;;
16037;SDS011;8123;50.906;6.172;2023-02-28T12:52:08;2.97;;;2.70;;
16037;SDS011;8123;50.906;6.172;2023-02-28T12:54:52;3.33;;;3.03;;
16037;SDS011;8123;50.906;6.172;2023-02-28T12:57:28;3.27;;;3.07;;
16037;SDS011;8123;50.906;6.172;2023-02-28T12:59:58;3.73;;;2.90;;
16037;SDS011;8123;50.906;6.172;2023-02-28T13:10:40;6.27;;;2.87;;
16037;SDS011;8123;50.906;6.172;2023-02-28T13:13:18;5.40;;;2.30;;
16037;SDS011;8123;50.906;6.172;2023-02-28T13:16:06;2.90;;;2.70;;
16037;SDS011;8123;50.906;6.172;2023-02-28T13:18:39;6.53;;;3.30;;
16037;SDS011;8123;50.906;6.172;2023-02-28T13:21:09;3.73;;;2.90;;
16037;SDS011;8123;50.906;6.172;2023-02-28T13:24:08;3.43;;;3.13;;
16037;SDS011;8123;50.906;6.172;2023-02-28T13:29:04;3.10;;;2.90;;
16037;SDS011;8123;50.906;6.172;2023-02-28T13:34:34;3.77;;;3.50;;
16037;SDS011;8123;50.906;6.172;2023-02-28T13:39:51;5.13;;;3.63;;
16037;SDS011;8123;50.906;6.172;2023-02-28T13:47:29;3.17;;;2.97;;
16037;SDS011;8123;50.906;6.172;2023-02-28T14:04:13;4.90;;;3.70;;
16037;SDS011;8123;50.906;6.172;2023-02-28T14:07:06;8.63;;;2.90;;
16037;SDS011;8123;50.906;6.172;2023-02-28T14:09:38;4.83;;;3.53;;
16037;SDS011;8123;50.906;6.172;2023-02-28T14:18:01;7.70;;;3.63;;
16037;SDS011;8123;50.906;6.172;2023-02-28T14:20:31;5.50;;;4.03;;
16037;SDS011;8123;50.906;6.172;2023-02-28T14:23:06;16.10;;;4.07;;
16037;SDS011;8123;50.906;6.172;2023-02-28T14:25:52;10.43;;;4.20;;
16037;SDS011;8123;50.906;6.172;2023-02-28T14:28:33;3.93;;;3.63;;
16037;SDS011;8123;50.906;6.172;2023-02-28T14:31:27;5.60;;;3.30;;
16037;SDS011;8123;50.906;6.172;2023-02-28T14:34:16;3.93;;;3.60;;
16037;SDS011;8123;50.906;6.172;2023-02-28T14:37:00;3.33;;;2.80;;
16037;SDS011;8123;50.906;6.172;2023-02-28T14:39:28;4.30;;;3.53;;
16037;SDS011;8123;50.906;6.172;2023-02-28T14:41:56;5.43;;;3.53;;
16037;SDS011;8123;50.906;6.172;2023-02-28T14:44:31;3.57;;;3.20;;
16037;SDS011;8123;50.906;6.172;2023-02-28T14:47:00;7.37;;;4.60;;
16037;SDS011;8123;50.906;6.172;2023-02-28T14:52:06;14.87;;;4.37;;
16037;SDS011;8123;50.906;6.172;2023-02-28T14:54:42;3.40;;;3.20;;
16037;SDS011;8123;50.906;6.172;2023-02-28T14:57:26;3.03;;;2.77;;
16037;SDS011;8123;50.906;6.172;2023-02-28T15:02:46;5.50;;;4.30;;
16037;SDS011;8123;50.906;6.172;2023-02-28T15:07:40;4.00;;;3.50;;
16037;SDS011;8123;50.906;6.172;2023-02-28T15:12:48;8.60;;;4.63;;
16037;SDS011;8123;50.906;6.172;2023-02-28T15:15:41;3.97;;;3.53;;
16037;SDS011;8123;50.906;6.172;2023-02-28T15:18:10;3.80;;;3.50;;
16037;SDS011;8123;50.906;6.172;2023-02-28T15:20:52;4.20;;;3.73;;
16037;SDS011;8123;50.906;6.172;2023-02-28T15:23:20;4.03;;;3.70;;
16037;SDS011;8123;50.906;6.172;2023-02-28T15:25:47;6.00;;;3.50;;
16037;SDS011;8123;50.906;6.172;2023-02-28T15:28:16;4.63;;;3.30;;
16037;SDS011;8123;50.906;6.172;2023-02-28T15:30:52;4.20;;;3.80;;
16037;SDS011;8123;50.906;6.172;2023-02-28T15:33:29;6.90;;;3.50;;
16037;SDS011;8123;50.906;6.172;2023-02-28T15:36:06;5.10;;;3.70;;
16037;SDS011;8123;50.906;6.172;2023-02-28T15:38:40;6.03;;;3.80;;
16037;SDS011;8123;50.906;6.172;2023-02-28T15:41:20;6.33;;;3.70;;
16037;SDS011;8123;50.906;6.172;2023-02-28T15:43:49;11.43;;;3.77;;
16037;SDS011;8123;50.906;6.172;2023-02-28T15:47:03;7.13;;;4.60;;
16037;SDS011;8123;50.906;6.172;2023-02-28T15:50:00;13.90;;;3.93;;
16037;SDS011;8123;50.906;6.172;2023-02-28T15:52:28;4.60;;;3.17;;
16037;SDS011;8123;50.906;6.172;2023-02-28T15:55:09;3.53;;;3.23;;
16037;SDS011;8123;50.906;6.172;2023-02-28T15:57:51;5.23;;;3.30;;
16037;SDS011;8123;50.906;6.172;2023-02-28T16:00:24;4.40;;;3.30;;
16037;SDS011;8123;50.906;6.172;2023-02-28T16:02:51;4.33;;;3.70;;
16037;SDS011;8123;50.906;6.172;2023-02-28T16:05:35;5.23;;;3.13;;
16037;SDS011;8123;50.906;6.172;2023-02-28T16:08:06;3.73;;;3.30;;
16037;SDS011;8123;50.906;6.172;2023-02-28T16:10:38;4.40;;;3.20;;
16037;SDS011;8123;50.906;6.172;2023-02-28T16:13:04;4.23;;;3.43;;
16037;SDS011;8123;50.906;6.172;2023-02-28T16:15:30;3.47;;;3.17;;
16037;SDS011;8123;50.906;6.172;2023-02-28T16:18:07;3.97;;;3.03;;
16037;SDS011;8123;50.906;6.172;2023-02-28T16:20:36;12.13;;;3.13;;
16037;SDS011;8123;50.906;6.172;2023-02-28T16:23:02;4.27;;;3.13;;
16037;SDS011;8123;50.906;6.172;2023-02-28T16:25:37;6.07;;;2.60;;
16037;SDS011;8123;50.906;6.172;2023-02-28T16:28:06;3.40;;;3.10;;
16037;SDS011;8123;50.906;6.172;2023-02-28T16:30:45;3.30;;;3.07;;
16037;SDS011;8123;50.906;6.172;2023-02-28T16:33:11;4.47;;;3.10;;
16037;SDS011;8123;50.906;6.172;2023-02-28T16:35:37;5.70;;;3.10;;
16037;SDS011;8123;50.906;6.172;2023-02-28T16:38:03;3.23;;;3.00;;
16037;SDS011;8123;50.906;6.172;2023-02-28T16:40:29;5.90;;;3.97;;
16037;SDS011;8123;50.906;6.172;2023-02-28T16:43:00;3.93;;;3.57;;
16037;SDS011;8123;50.906;6.172;2023-02-28T16:45:32;16.17;;;4.80;;
16037;SDS011;8123;50.906;6.172;2023-02-28T16:47:58;7.40;;;4.00;;
16037;SDS011;8123;50.906;6.172;2023-02-28T16:50:28;7.83;;;3.83;;
16037;SDS011;8123;50.906;6.172;2023-02-28T16:52:55;7.10;;;4.77;;
16037;SDS011;8123;50.906;6.172;2023-02-28T16:55:22;6.97;;;4.50;;
16037;SDS011;8123;50.906;6.172;2023-02-28T16:57:56;16.93;;;8.03;;
16037;SDS011;8123;50.906;6.172;2023-02-28T17:00:23;14.10;;;7.07;;
16037;SDS011;8123;50.906;6.172;2023-02-28T17:02:50;4.53;;;4.20;;
16037;SDS011;8123;50.906;6.172;2023-02-28T17:05:16;10.90;;;5.67;;
16037;SDS011;8123;50.906;6.172;2023-02-28T17:07:43;6.90;;;5.27;;
16037;SDS011;8123;50.906;6.172;2023-02-28T17:10:20;11.53;;;5.80;;
16037;SDS011;8123;50.906;6.172;2023-02-28T17:12:47;13.83;;;5.40;;
16037;SDS011;8123;50.906;6.172;2023-02-28T17:15:13;7.93;;;5.20;;
16037;SDS011;8123;50.906;6.172;2023-02-28T17:17:40;6.67;;;4.50;;
16037;SDS011;8123;50.906;6.172;2023-02-28T17:20:18;10.30;;;4.70;;
16037;SDS011;8123;50.906;6.172;2023-02-28T17:22:49;10.47;;;6.70;;
16037;SDS011;8123;50.906;6.172;2023-02-28T17:25:15;8.00;;;5.33;;
16037;SDS011;8123;50.906;6.172;2023-02-28T17:27:41;11.07;;;6.10;;
16037;SDS011;8123;50.906;6.172;2023-02-28T17:32:42;9.37;;;5.00;;
16037;SDS011;8123;50.906;6.172;2023-02-28T17:35:09;8.67;;;5.10;;
16037;SDS011;8123;50.906;6.172;2023-02-28T17:37:35;11.97;;;5.30;;
16037;SDS011;8123;50.906;6.172;2023-02-28T17:40:00;9.97;;;6.50;;
16037;SDS011;8123;50.906;6.172;2023-02-28T17:42:26;6.70;;;5.30;;
16037;SDS011;8123;50.906;6.172;2023-02-28T17:44:52;12.57;;;5.30;;
16037;SDS011;8123;50.906;6.172;2023-02-28T17:47:18;5.03;;;4.53;;
16037;SDS011;8123;50.906;6.172;2023-02-28T17:49:43;7.17;;;4.83;;